Terminal Aerodrome Forecast
Issued by NWS

Home | Current Version | Previous Version | Text Only | Print | Product List | Glossary On
Versions: 1 2 3 4 5 6 7 8 9 10 11 12 13 14 15 16 17 18 19 20 21 22 23 24 25 26 27 28 29 30 31 32
000
FTUS41 KBOX 261602 AAB
TAFBED
TAF AMD
KBED 261602Z 2616/2712 03008KT 4SM -RA OVC025
     FM261700 02005KT 2SM -RASN OVC008
     FM261900 03008KT 1/4SM RASN OVC008
     FM262100 03010G29KT 1/4SM RASN OVC008
     FM270400 36012G29KT 1SM PLSN OVC010
     FM270600 34014G30KT P6SM OVC015
     FM270900 32008KT P6SM OVC035=

USA.gov is the U.S. government's official web portal to all federal, state and local government web resources and services.